sensor_id;sensor_type;location;lat;lon;timestamp;pressure;altitude;pressure_sealevel;temperature;humidity
19457;BME280;9867;48.094;11.478;2023-04-28T00:01:13;95152.69;;;8.74;100.00
19457;BME280;9867;48.094;11.478;2023-04-28T00:03:43;95169.69;;;8.82;100.00
19457;BME280;9867;48.094;11.478;2023-04-28T00:06:12;95160.56;;;8.73;100.00
19457;BME280;9867;48.094;11.478;2023-04-28T00:08:41;95173.94;;;8.75;100.00
19457;BME280;9867;48.094;11.478;2023-04-28T00:11:10;95156.91;;;8.82;100.00
19457;BME280;9867;48.094;11.478;2023-04-28T00:13:38;95165.25;;;8.91;100.00
19457;BME280;9867;48.094;11.478;2023-04-28T00:16:06;95135.97;;;8.72;100.00
19457;BME280;9867;48.094;11.478;2023-04-28T00:18:34;95141.56;;;8.82;100.00
19457;BME280;9867;48.094;11.478;2023-04-28T00:21:02;95148.50;;;8.88;100.00
19457;BME280;9867;48.094;11.478;2023-04-28T00:23:30;95150.50;;;8.93;100.00
19457;BME280;9867;48.094;11.478;2023-04-28T00:26:00;95136.91;;;8.92;100.00
19457;BME280;9867;48.094;11.478;2023-04-28T00:28:28;95122.16;;;8.94;100.00
19457;BME280;9867;48.094;11.478;2023-04-28T00:31:00;95130.84;;;9.00;100.00
19457;BME280;9867;48.094;11.478;2023-04-28T00:33:28;95130.44;;;8.96;100.00
19457;BME280;9867;48.094;11.478;2023-04-28T00:36:00;95140.03;;;8.87;100.00
19457;BME280;9867;48.094;11.478;2023-04-28T00:38:28;95133.19;;;8.95;100.00
19457;BME280;9867;48.094;11.478;2023-04-28T00:40:56;95138.91;;;8.97;100.00
19457;BME280;9867;48.094;11.478;2023-04-28T00:43:25;95137.53;;;9.01;100.00
19457;BME280;9867;48.094;11.478;2023-04-28T00:45:53;95122.19;;;9.01;100.00
19457;BME280;9867;48.094;11.478;2023-04-28T00:48:22;95119.88;;;9.06;100.00
19457;BME280;9867;48.094;11.478;2023-04-28T00:50:50;95134.94;;;9.22;100.00
19457;BME280;9867;48.094;11.478;2023-04-28T00:53:18;95126.44;;;9.15;100.00
19457;BME280;9867;48.094;11.478;2023-04-28T00:55:48;95136.69;;;9.21;100.00
19457;BME280;9867;48.094;11.478;2023-04-28T00:58:18;95132.59;;;9.27;100.00
19457;BME280;9867;48.094;11.478;2023-04-28T01:00:47;95124.00;;;9.35;100.00
19457;BME280;9867;48.094;11.478;2023-04-28T01:03:15;95127.75;;;9.39;100.00
19457;BME280;9867;48.094;11.478;2023-04-28T01:05:46;95127.34;;;9.35;100.00
19457;BME280;9867;48.094;11.478;2023-04-28T01:08:22;95109.19;;;9.30;100.00
19457;BME280;9867;48.094;11.478;2023-04-28T01:10:50;95120.59;;;9.28;100.00
19457;BME280;9867;48.094;11.478;2023-04-28T01:13:35;95121.00;;;9.31;100.00
19457;BME280;9867;48.094;11.478;2023-04-28T01:16:05;95098.13;;;9.23;100.00
19457;BME280;9867;48.094;11.478;2023-04-28T01:18:34;95105.25;;;9.28;100.00
19457;BME280;9867;48.094;11.478;2023-04-28T01:21:03;95093.19;;;9.21;100.00
19457;BME280;9867;48.094;11.478;2023-04-28T01:23:31;95113.56;;;9.36;100.00
19457;BME280;9867;48.094;11.478;2023-04-28T01:26:00;95101.94;;;9.34;100.00
19457;BME280;9867;48.094;11.478;2023-04-28T01:28:28;95098.19;;;9.36;100.00
19457;BME280;9867;48.094;11.478;2023-04-28T01:30:57;95081.44;;;9.34;100.00
19457;BME280;9867;48.094;11.478;2023-04-28T01:33:25;95072.97;;;9.33;100.00
19457;BME280;9867;48.094;11.478;2023-04-28T01:35:56;95075.94;;;9.37;100.00
19457;BME280;9867;48.094;11.478;2023-04-28T01:38:24;95072.22;;;9.39;100.00
19457;BME280;9867;48.094;11.478;2023-04-28T01:40:53;95080.66;;;9.33;100.00
19457;BME280;9867;48.094;11.478;2023-04-28T01:43:23;95080.06;;;9.31;100.00
19457;BME280;9867;48.094;11.478;2023-04-28T01:45:51;95081.78;;;9.24;100.00
19457;BME280;9867;48.094;11.478;2023-04-28T01:48:19;95069.03;;;9.31;100.00
19457;BME280;9867;48.094;11.478;2023-04-28T01:50:48;95086.19;;;9.37;100.00
19457;BME280;9867;48.094;11.478;2023-04-28T01:53:16;95083.44;;;9.38;100.00
19457;BME280;9867;48.094;11.478;2023-04-28T01:55:46;95081.03;;;9.30;100.00
19457;BME280;9867;48.094;11.478;2023-04-28T01:58:15;95077.69;;;9.30;100.00
19457;BME280;9867;48.094;11.478;2023-04-28T02:00:48;95085.13;;;9.24;100.00
19457;BME280;9867;48.094;11.478;2023-04-28T02:03:18;95087.31;;;9.28;100.00
19457;BME280;9867;48.094;11.478;2023-04-28T02:05:48;95084.38;;;9.31;100.00
19457;BME280;9867;48.094;11.478;2023-04-28T02:08:17;95083.25;;;9.40;100.00
19457;BME280;9867;48.094;11.478;2023-04-28T02:10:46;95089.78;;;9.49;100.00
19457;BME280;9867;48.094;11.478;2023-04-28T02:13:14;95082.47;;;9.46;100.00
19457;BME280;9867;48.094;11.478;2023-04-28T02:15:43;95091.16;;;9.51;100.00
19457;BME280;9867;48.094;11.478;2023-04-28T02:18:13;95096.53;;;9.56;100.00
19457;BME280;9867;48.094;11.478;2023-04-28T02:20:41;95103.44;;;9.63;100.00
19457;BME280;9867;48.094;11.478;2023-04-28T02:23:09;95067.72;;;9.41;100.00
19457;BME280;9867;48.094;11.478;2023-04-28T02:25:37;95087.28;;;9.62;100.00
19457;BME280;9867;48.094;11.478;2023-04-28T02:28:06;95076.78;;;9.50;100.00
19457;BME280;9867;48.094;11.478;2023-04-28T02:30:37;95099.88;;;9.57;100.00
19457;BME280;9867;48.094;11.478;2023-04-28T02:33:05;95089.41;;;9.52;100.00
19457;BME280;9867;48.094;11.478;2023-04-28T02:35:35;95079.56;;;9.55;100.00
19457;BME280;9867;48.094;11.478;2023-04-28T02:38:03;95094.22;;;9.68;100.00
19457;BME280;9867;48.094;11.478;2023-04-28T02:40:31;95074.63;;;9.54;100.00
19457;BME280;9867;48.094;11.478;2023-04-28T02:42:59;95078.81;;;9.62;100.00
19457;BME280;9867;48.094;11.478;2023-04-28T02:45:27;95047.41;;;9.40;100.00
19457;BME280;9867;48.094;11.478;2023-04-28T02:47:55;95046.00;;;9.31;100.00
19457;BME280;9867;48.094;11.478;2023-04-28T02:50:23;95050.50;;;9.29;100.00
19457;BME280;9867;48.094;11.478;2023-04-28T02:52:52;95053.25;;;9.27;100.00
19457;BME280;9867;48.094;11.478;2023-04-28T02:55:20;95046.38;;;9.28;100.00
19457;BME280;9867;48.094;11.478;2023-04-28T02:57:51;95041.88;;;9.36;100.00
19457;BME280;9867;48.094;11.478;2023-04-28T03:00:19;95029.59;;;9.25;100.00
19457;BME280;9867;48.094;11.478;2023-04-28T03:02:49;95039.97;;;9.51;100.00
19457;BME280;9867;48.094;11.478;2023-04-28T03:05:17;95041.16;;;9.55;100.00
19457;BME280;9867;48.094;11.478;2023-04-28T03:07:45;95051.03;;;9.58;100.00
19457;BME280;9867;48.094;11.478;2023-04-28T03:10:15;95043.31;;;9.52;100.00
19457;BME280;9867;48.094;11.478;2023-04-28T03:12:43;95048.06;;;9.62;100.00
19457;BME280;9867;48.094;11.478;2023-04-28T03:15:11;95053.78;;;9.57;100.00
19457;BME280;9867;48.094;11.478;2023-04-28T03:17:40;95043.31;;;9.52;100.00
19457;BME280;9867;48.094;11.478;2023-04-28T03:20:09;95049.06;;;9.61;100.00
19457;BME280;9867;48.094;11.478;2023-04-28T03:22:41;95059.34;;;9.67;100.00
19457;BME280;9867;48.094;11.478;2023-04-28T03:25:09;95049.25;;;9.59;100.00
19457;BME280;9867;48.094;11.478;2023-04-28T03:27:47;95037.03;;;9.61;100.00
19457;BME280;9867;48.094;11.478;2023-04-28T03:30:15;95035.09;;;9.63;100.00
19457;BME280;9867;48.094;11.478;2023-04-28T03:32:43;95033.47;;;9.55;100.00
19457;BME280;9867;48.094;11.478;2023-04-28T03:35:11;95022.25;;;9.56;100.00
19457;BME280;9867;48.094;11.478;2023-04-28T03:37:39;95027.81;;;9.67;100.00
19457;BME280;9867;48.094;11.478;2023-04-28T03:40:08;95029.78;;;9.65;100.00
19457;BME280;9867;48.094;11.478;2023-04-28T03:42:58;95025.03;;;9.62;100.00
19457;BME280;9867;48.094;11.478;2023-04-28T03:45:37;95030.09;;;9.42;100.00
19457;BME280;9867;48.094;11.478;2023-04-28T03:48:06;95032.06;;;9.40;100.00
19457;BME280;9867;48.094;11.478;2023-04-28T03:50:35;95036.22;;;9.54;100.00
19457;BME280;9867;48.094;11.478;2023-04-28T03:53:03;95045.91;;;9.58;100.00
19457;BME280;9867;48.094;11.478;2023-04-28T03:55:31;95048.06;;;9.62;100.00
19457;BME280;9867;48.094;11.478;2023-04-28T03:58:01;95057.94;;;9.65;100.00
19457;BME280;9867;48.094;11.478;2023-04-28T04:00:29;95048.66;;;9.57;100.00
19457;BME280;9867;48.094;11.478;2023-04-28T04:02:57;95047.09;;;9.63;100.00
19457;BME280;9867;48.094;11.478;2023-04-28T04:05:25;95013.75;;;9.49;100.00
19457;BME280;9867;48.094;11.478;2023-04-28T04:07:53;95037.66;;;9.63;100.00
19457;BME280;9867;48.094;11.478;2023-04-28T04:10:21;95028.53;;;9.54;100.00
19457;BME280;9867;48.094;11.478;2023-04-28T04:12:50;95027.72;;;9.47;100.00
19457;BME280;9867;48.094;11.478;2023-04-28T04:15:20;95033.03;;;9.45;100.00
19457;BME280;9867;48.094;11.478;2023-04-28T04:17:48;94993.63;;;9.33;100.00
19457;BME280;9867;48.094;11.478;2023-04-28T04:20:16;95010.03;;;9.52;100.00
19457;BME280;9867;48.094;11.478;2023-04-28T04:22:44;95011.25;;;9.63;100.00
19457;BME280;9867;48.094;11.478;2023-04-28T04:25:13;95006.25;;;9.41;100.00
19457;BME280;9867;48.094;11.478;2023-04-28T04:27:46;95025.00;;;9.55;100.00
19457;BME280;9867;48.094;11.478;2023-04-28T04:30:14;95012.78;;;9.44;100.00
19457;BME280;9867;48.094;11.478;2023-04-28T04:32:44;95010.63;;;9.54;100.00
19457;BME280;9867;48.094;11.478;2023-04-28T04:35:12;95023.19;;;9.49;100.00
19457;BME280;9867;48.094;11.478;2023-04-28T04:37:40;95022.00;;;9.38;100.00
19457;BME280;9867;48.094;11.478;2023-04-28T04:40:09;95012.66;;;9.17;100.00
19457;BME280;9867;48.094;11.478;2023-04-28T04:42:45;95035.09;;;9.15;100.00
19457;BME280;9867;48.094;11.478;2023-04-28T04:45:17;95040.22;;;9.15;100.00
19457;BME280;9867;48.094;11.478;2023-04-28T04:47:47;95016.13;;;9.03;100.00
19457;BME280;9867;48.094;11.478;2023-04-28T04:50:16;95033.31;;;9.16;100.00
19457;BME280;9867;48.094;11.478;2023-04-28T04:52:44;95026.44;;;9.23;100.00
19457;BME280;9867;48.094;11.478;2023-04-28T04:55:12;95032.25;;;9.38;100.00
19457;BME280;9867;48.094;11.478;2023-04-28T04:57:42;95040.16;;;9.50;100.00
19457;BME280;9867;48.094;11.478;2023-04-28T05:00:40;95043.91;;;9.54;100.00
19457;BME280;9867;48.094;11.478;2023-04-28T05:03:11;95056.94;;;9.59;100.00
19457;BME280;9867;48.094;11.478;2023-04-28T05:05:40;95049.03;;;9.54;100.00
19457;BME280;9867;48.094;11.478;2023-04-28T05:08:17;95052.00;;;9.57;100.00
19457;BME280;9867;48.094;11.478;2023-04-28T05:10:45;95050.03;;;9.60;100.00
19457;BME280;9867;48.094;11.478;2023-04-28T05:13:14;95040.59;;;9.60;100.00
19457;BME280;9867;48.094;11.478;2023-04-28T05:15:42;95050.88;;;9.67;100.00
19457;BME280;9867;48.094;11.478;2023-04-28T05:18:28;95045.31;;;9.56;100.00
19457;BME280;9867;48.094;11.478;2023-04-28T05:20:57;95053.00;;;9.63;100.00
19457;BME280;9867;48.094;11.478;2023-04-28T05:23:25;95036.00;;;9.42;100.00
19457;BME280;9867;48.094;11.478;2023-04-28T05:25:54;95058.44;;;9.47;100.00
19457;BME280;9867;48.094;11.478;2023-04-28T05:28:22;95057.25;;;9.36;100.00
19457;BME280;9867;48.094;11.478;2023-04-28T05:30:53;95029.84;;;9.30;100.00
19457;BME280;9867;48.094;11.478;2023-04-28T05:33:21;95058.88;;;9.50;100.00
19457;BME280;9867;48.094;11.478;2023-04-28T05:35:51;95058.94;;;9.64;100.00
19457;BME280;9867;48.094;11.478;2023-04-28T05:38:19;95057.34;;;9.69;100.00
19457;BME280;9867;48.094;11.478;2023-04-28T05:40:53;95064.47;;;9.74;100.00
19457;BME280;9867;48.094;11.478;2023-04-28T05:43:24;95057.41;;;9.82;100.00
19457;BME280;9867;48.094;11.478;2023-04-28T05:45:53;95042.63;;;9.84;100.00
19457;BME280;9867;48.094;11.478;2023-04-28T05:48:21;95031.94;;;9.74;100.00
19457;BME280;9867;48.094;11.478;2023-04-28T05:50:50;95055.47;;;9.91;100.00
19457;BME280;9867;48.094;11.478;2023-04-28T05:53:18;95057.00;;;9.85;100.00
19457;BME280;9867;48.094;11.478;2023-04-28T05:55:48;95070.22;;;9.82;100.00
19457;BME280;9867;48.094;11.478;2023-04-28T05:58:17;95076.34;;;9.88;100.00
19457;BME280;9867;48.094;11.478;2023-04-28T06:00:45;95079.69;;;9.88;100.00
19457;BME280;9867;48.094;11.478;2023-04-28T06:03:13;95074.38;;;9.90;100.00
19457;BME280;9867;48.094;11.478;2023-04-28T06:05:45;95080.06;;;9.92;100.00
19457;BME280;9867;48.094;11.478;2023-04-28T06:08:15;95072.41;;;9.99;100.00
19457;BME280;9867;48.094;11.478;2023-04-28T06:10:43;95070.63;;;9.99;100.00
19457;BME280;9867;48.094;11.478;2023-04-28T06:13:14;95068.50;;;10.09;100.00
19457;BME280;9867;48.094;11.478;2023-04-28T06:15:42;95065.16;;;10.15;100.00
19457;BME280;9867;48.094;11.478;2023-04-28T06:18:10;95066.38;;;10.33;100.00
19457;BME280;9867;48.094;11.478;2023-04-28T06:20:38;95070.16;;;10.56;100.00
19457;BME280;9867;48.094;11.478;2023-04-28T06:23:06;95063.41;;;10.69;100.00
19457;BME280;9867;48.094;11.478;2023-04-28T06:25:41;95056.72;;;10.74;100.00
19457;BME280;9867;48.094;11.478;2023-04-28T06:28:09;95064.22;;;10.82;100.00
19457;BME280;9867;48.094;11.478;2023-04-28T06:30:39;95065.38;;;10.93;100.00
19457;BME280;9867;48.094;11.478;2023-04-28T06:33:06;95060.44;;;10.98;100.00
19457;BME280;9867;48.094;11.478;2023-04-28T06:35:35;95049.16;;;10.99;100.00
19457;BME280;9867;48.094;11.478;2023-04-28T06:38:05;95055.84;;;11.13;100.00
19457;BME280;9867;48.094;11.478;2023-04-28T06:40:33;95054.22;;;11.32;100.00
19457;BME280;9867;48.094;11.478;2023-04-28T06:43:05;95050.63;;;11.46;100.00
19457;BME280;9867;48.094;11.478;2023-04-28T06:45:56;95049.63;;;11.47;100.00
19457;BME280;9867;48.094;11.478;2023-04-28T06:48:24;95033.59;;;11.52;100.00
19457;BME280;9867;48.094;11.478;2023-04-28T06:50:52;95023.72;;;11.49;100.00
19457;BME280;9867;48.094;11.478;2023-04-28T06:53:24;95023.84;;;11.67;100.00
19457;BME280;9867;48.094;11.478;2023-04-28T06:55:52;95027.53;;;11.84;100.00
19457;BME280;9867;48.094;11.478;2023-04-28T06:58:21;95019.16;;;11.95;100.00
19457;BME280;9867;48.094;11.478;2023-04-28T07:00:49;95025.78;;;12.10;100.00
19457;BME280;9867;48.094;11.478;2023-04-28T07:03:17;95025.13;;;12.21;100.00
19457;BME280;9867;48.094;11.478;2023-04-28T07:05:46;95016.88;;;12.12;100.00
19457;BME280;9867;48.094;11.478;2023-04-28T07:08:14;94999.19;;;12.22;100.00
19457;BME280;9867;48.094;11.478;2023-04-28T07:10:43;95039.03;;;12.38;100.00
19457;BME280;9867;48.094;11.478;2023-04-28T07:13:11;95008.53;;;12.42;100.00
19457;BME280;9867;48.094;11.478;2023-04-28T07:15:40;95035.06;;;12.42;100.00
19457;BME280;9867;48.094;11.478;2023-04-28T07:18:08;95027.28;;;12.24;100.00
19457;BME280;9867;48.094;11.478;2023-04-28T07:20:36;95022.56;;;12.21;100.00
19457;BME280;9867;48.094;11.478;2023-04-28T07:23:04;95021.34;;;12.23;100.00
19457;BME280;9867;48.094;11.478;2023-04-28T07:25:32;95030.78;;;12.29;100.00
19457;BME280;9867;48.094;11.478;2023-04-28T07:28:02;95021.56;;;12.22;100.00
19457;BME280;9867;48.094;11.478;2023-04-28T07:30:30;95030.16;;;12.34;100.00
19457;BME280;9867;48.094;11.478;2023-04-28T07:33:00;95022.13;;;12.24;100.00
19457;BME280;9867;48.094;11.478;2023-04-28T07:35:28;95019.50;;;12.30;100.00
19457;BME280;9867;48.094;11.478;2023-04-28T07:37:56;95023.50;;;12.26;100.00
19457;BME280;9867;48.094;11.478;2023-04-28T07:40:24;95012.09;;;12.41;100.00
19457;BME280;9867;48.094;11.478;2023-04-28T07:42:52;95013.09;;;12.83;100.00
19457;BME280;9867;48.094;11.478;2023-04-28T07:45:20;95012.63;;;13.11;100.00
19457;BME280;9867;48.094;11.478;2023-04-28T07:47:48;95021.47;;;12.78;100.00
19457;BME280;9867;48.094;11.478;2023-04-28T07:50:18;95016.25;;;12.67;100.00
19457;BME280;9867;48.094;11.478;2023-04-28T07:52:46;95026.97;;;12.63;100.00
19457;BME280;9867;48.094;11.478;2023-04-28T07:55:14;95031.50;;;13.05;100.00
19457;BME280;9867;48.094;11.478;2023-04-28T07:57:42;95028.25;;;13.34;100.00
19457;BME280;9867;48.094;11.478;2023-04-28T08:00:11;95018.16;;;13.14;100.00
19457;BME280;9867;48.094;11.478;2023-04-28T08:02:39;95040.34;;;13.15;100.00
19457;BME280;9867;48.094;11.478;2023-04-28T08:05:08;95040.91;;;12.99;100.00
19457;BME280;9867;48.094;11.478;2023-04-28T08:07:38;95029.22;;;12.96;100.00
19457;BME280;9867;48.094;11.478;2023-04-28T08:10:08;95027.63;;;12.52;100.00
19457;BME280;9867;48.094;11.478;2023-04-28T08:12:36;95041.00;;;12.43;100.00
19457;BME280;9867;48.094;11.478;2023-04-28T08:15:08;95037.38;;;12.25;100.00
19457;BME280;9867;48.094;11.478;2023-04-28T08:17:36;95043.53;;;12.18;100.00
19457;BME280;9867;48.094;11.478;2023-04-28T08:20:06;95021.91;;;12.01;100.00
19457;BME280;9867;48.094;11.478;2023-04-28T08:22:34;95023.72;;;12.25;100.00
19457;BME280;9867;48.094;11.478;2023-04-28T08:25:05;95023.75;;;12.43;100.00
19457;BME280;9867;48.094;11.478;2023-04-28T08:27:33;95009.31;;;12.67;100.00
19457;BME280;9867;48.094;11.478;2023-04-28T08:30:04;95003.47;;;12.28;100.00
19457;BME280;9867;48.094;11.478;2023-04-28T08:32:32;94987.59;;;12.13;100.00
19457;BME280;9867;48.094;11.478;2023-04-28T08:35:00;94999.03;;;12.42;100.00
19457;BME280;9867;48.094;11.478;2023-04-28T08:37:29;95009.91;;;12.19;100.00
19457;BME280;9867;48.094;11.478;2023-04-28T08:39:57;94997.41;;;12.23;100.00
19457;BME280;9867;48.094;11.478;2023-04-28T08:42:29;94992.72;;;12.38;100.00
19457;BME280;9867;48.094;11.478;2023-04-28T08:44:58;94986.03;;;12.55;100.00
19457;BME280;9867;48.094;11.478;2023-04-28T08:47:31;94988.00;;;12.35;100.00
19457;BME280;9867;48.094;11.478;2023-04-28T08:50:02;94987.13;;;12.48;100.00
19457;BME280;9867;48.094;11.478;2023-04-28T08:52:32;94986.75;;;12.44;100.00
19457;BME280;9867;48.094;11.478;2023-04-28T08:55:05;94981.41;;;12.46;100.00
19457;BME280;9867;48.094;11.478;2023-04-28T08:57:37;94987.34;;;12.64;100.00
19457;BME280;9867;48.094;11.478;2023-04-28T09:00:07;94997.09;;;12.38;100.00
19457;BME280;9867;48.094;11.478;2023-04-28T09:02:36;94946.19;;;12.21;100.00
19457;BME280;9867;48.094;11.478;2023-04-28T09:05:08;94985.75;;;12.45;100.00
19457;BME280;9867;48.094;11.478;2023-04-28T09:07:37;94993.94;;;12.79;100.00
19457;BME280;9867;48.094;11.478;2023-04-28T09:10:16;94984.16;;;12.87;100.00
19457;BME280;9867;48.094;11.478;2023-04-28T09:12:49;94932.59;;;12.76;100.00
19457;BME280;9867;48.094;11.478;2023-04-28T09:15:28;94994.72;;;13.22;100.00
19457;BME280;9867;48.094;11.478;2023-04-28T09:17:59;94988.97;;;13.39;100.00
19457;BME280;9867;48.094;11.478;2023-04-28T09:20:29;94975.75;;;13.17;100.00
19457;BME280;9867;48.094;11.478;2023-04-28T09:23:12;94981.69;;;12.56;100.00
19457;BME280;9867;48.094;11.478;2023-04-28T09:25:54;94973.06;;;12.25;100.00
19457;BME280;9867;48.094;11.478;2023-04-28T09:28:24;94976.50;;;12.13;100.00
19457;BME280;9867;48.094;11.478;2023-04-28T09:30:52;94989.31;;;12.19;100.00
19457;BME280;9867;48.094;11.478;2023-04-28T09:33:21;94975.66;;;11.94;100.00
19457;BME280;9867;48.094;11.478;2023-04-28T09:35:49;94967.16;;;11.93;100.00
19457;BME280;9867;48.094;11.478;2023-04-28T09:38:18;94971.38;;;11.81;100.00
19457;BME280;9867;48.094;11.478;2023-04-28T09:40:51;94968.75;;;11.94;100.00
19457;BME280;9867;48.094;11.478;2023-04-28T09:43:24;94960.41;;;11.99;100.00
19457;BME280;9867;48.094;11.478;2023-04-28T09:45:53;94952.22;;;12.09;100.00
19457;BME280;9867;48.094;11.478;2023-04-28T09:48:29;94960.00;;;12.27;100.00
19457;BME280;9867;48.094;11.478;2023-04-28T09:50:58;94950.69;;;12.26;100.00
19457;BME280;9867;48.094;11.478;2023-04-28T09:53:27;94956.19;;;12.29;100.00
19457;BME280;9867;48.094;11.478;2023-04-28T09:55:56;94958.69;;;12.18;100.00
19457;BME280;9867;48.094;11.478;2023-04-28T09:58:27;94952.75;;;12.17;100.00
19457;BME280;9867;48.094;11.478;2023-04-28T10:00:57;94956.16;;;12.11;100.00
19457;BME280;9867;48.094;11.478;2023-04-28T10:03:26;94963.03;;;12.17;100.00
19457;BME280;9867;48.094;11.478;2023-04-28T10:05:56;94966.22;;;11.88;100.00
19457;BME280;9867;48.094;11.478;2023-04-28T10:08:25;94955.63;;;11.78;100.00
19457;BME280;9867;48.094;11.478;2023-04-28T10:10:54;94954.19;;;11.82;100.00
19457;BME280;9867;48.094;11.478;2023-04-28T10:13:23;94948.00;;;11.89;100.00
19457;BME280;9867;48.094;11.478;2023-04-28T10:15:52;94948.03;;;11.83;100.00
19457;BME280;9867;48.094;11.478;2023-04-28T10:18:24;94945.44;;;11.89;100.00
19457;BME280;9867;48.094;11.478;2023-04-28T10:20:57;94943.44;;;11.91;100.00
19457;BME280;9867;48.094;11.478;2023-04-28T10:24:02;94945.91;;;11.80;100.00
19457;BME280;9867;48.094;11.478;2023-04-28T10:27:01;94932.06;;;11.81;100.00
19457;BME280;9867;48.094;11.478;2023-04-28T10:29:31;94947.13;;;11.77;100.00
19457;BME280;9867;48.094;11.478;2023-04-28T10:32:18;94933.53;;;11.63;100.00
19457;BME280;9867;48.094;11.478;2023-04-28T10:34:46;94926.31;;;11.47;100.00
19457;BME280;9867;48.094;11.478;2023-04-28T10:37:15;94919.59;;;11.46;100.00
19457;BME280;9867;48.094;11.478;2023-04-28T10:42:51;94921.19;;;11.47;100.00
19457;BME280;9867;48.094;11.478;2023-04-28T10:48:51;94924.13;;;11.51;100.00
19457;BME280;9867;48.094;11.478;2023-04-28T10:51:26;94918.88;;;11.64;100.00
19457;BME280;9867;48.094;11.478;2023-04-28T10:54:15;94925.00;;;11.70;100.00
19457;BME280;9867;48.094;11.478;2023-04-28T10:57:18;94916.75;;;11.92;100.00
19457;BME280;9867;48.094;11.478;2023-04-28T10:59:47;94923.47;;;12.18;100.00
19457;BME280;9867;48.094;11.478;2023-04-28T11:02:39;94931.00;;;12.13;100.00
19457;BME280;9867;48.094;11.478;2023-04-28T11:05:15;94943.56;;;11.78;100.00
19457;BME280;9867;48.094;11.478;2023-04-28T11:11:15;94920.94;;;11.87;100.00
19457;BME280;9867;48.094;11.478;2023-04-28T11:13:44;94917.66;;;11.80;100.00
19457;BME280;9867;48.094;11.478;2023-04-28T11:16:14;94921.22;;;11.79;100.00
19457;BME280;9867;48.094;11.478;2023-04-28T11:19:04;94927.72;;;11.75;100.00
19457;BME280;9867;48.094;11.478;2023-04-28T11:21:38;94928.75;;;11.67;100.00
19457;BME280;9867;48.094;11.478;2023-04-28T11:24:10;94921.22;;;11.79;100.00
19457;BME280;9867;48.094;11.478;2023-04-28T11:26:38;94914.88;;;11.75;100.00
19457;BME280;9867;48.094;11.478;2023-04-28T11:29:07;94923.19;;;11.77;100.00
19457;BME280;9867;48.094;11.478;2023-04-28T11:31:35;94924.66;;;11.91;100.00
19457;BME280;9867;48.094;11.478;2023-04-28T11:34:04;94915.16;;;12.16;100.00
19457;BME280;9867;48.094;11.478;2023-04-28T11:36:33;94929.78;;;12.41;100.00
19457;BME280;9867;48.094;11.478;2023-04-28T11:39:05;94928.16;;;12.46;100.00
19457;BME280;9867;48.094;11.478;2023-04-28T11:41:34;94927.06;;;12.54;100.00
19457;BME280;9867;48.094;11.478;2023-04-28T11:44:09;94931.69;;;12.70;100.00
19457;BME280;9867;48.094;11.478;2023-04-28T11:46:44;94933.28;;;13.01;100.00
19457;BME280;9867;48.094;11.478;2023-04-28T11:49:12;94930.25;;;13.41;100.00
19457;BME280;9867;48.094;11.478;2023-04-28T11:51:40;94928.13;;;13.38;100.00
19457;BME280;9867;48.094;11.478;2023-04-28T11:54:19;94938.16;;;13.27;100.00
19457;BME280;9867;48.094;11.478;2023-04-28T11:56:48;94931.34;;;13.15;100.00
19457;BME280;9867;48.094;11.478;2023-04-28T11:59:16;94937.16;;;13.10;100.00
19457;BME280;9867;48.094;11.478;2023-04-28T12:01:47;94926.22;;;12.96;100.00
19457;BME280;9867;48.094;11.478;2023-04-28T12:04:26;94944.84;;;12.98;100.00
19457;BME280;9867;48.094;11.478;2023-04-28T12:07:00;94938.03;;;13.22;100.00
19457;BME280;9867;48.094;11.478;2023-04-28T12:09:30;94946.88;;;13.26;100.00
19457;BME280;9867;48.094;11.478;2023-04-28T12:11:59;94944.94;;;13.40;100.00
19457;BME280;9867;48.094;11.478;2023-04-28T12:14:29;94937.00;;;13.42;100.00
19457;BME280;9867;48.094;11.478;2023-04-28T12:16:58;94944.75;;;13.53;100.00
19457;BME280;9867;48.094;11.478;2023-04-28T12:19:29;94936.28;;;13.35;100.00
19457;BME280;9867;48.094;11.478;2023-04-28T12:22:02;94946.53;;;13.05;100.00
19457;BME280;9867;48.094;11.478;2023-04-28T12:24:32;94933.78;;;13.10;100.00
19457;BME280;9867;48.094;11.478;2023-04-28T12:27:14;94943.06;;;13.17;100.00
19457;BME280;9867;48.094;11.478;2023-04-28T12:29:43;94946.25;;;13.13;100.00
19457;BME280;9867;48.094;11.478;2023-04-28T12:32:13;94944.84;;;13.17;100.00
19457;BME280;9867;48.094;11.478;2023-04-28T12:34:43;94959.53;;;13.10;100.00
19457;BME280;9867;48.094;11.478;2023-04-28T12:37:12;94941.75;;;12.90;100.00
19457;BME280;9867;48.094;11.478;2023-04-28T12:39:41;94947.13;;;12.88;100.00
19457;BME280;9867;48.094;11.478;2023-04-28T12:42:10;94954.41;;;12.91;100.00
19457;BME280;9867;48.094;11.478;2023-04-28T12:44:37;94952.19;;;12.95;100.00
19457;BME280;9867;48.094;11.478;2023-04-28T12:47:07;94955.00;;;12.75;100.00
19457;BME280;9867;48.094;11.478;2023-04-28T12:49:37;94956.06;;;12.68;100.00
19457;BME280;9867;48.094;11.478;2023-04-28T12:52:05;94951.84;;;12.73;100.00
19457;BME280;9867;48.094;11.478;2023-04-28T12:54:33;94956.09;;;12.79;100.00
19457;BME280;9867;48.094;11.478;2023-04-28T12:57:03;94951.38;;;12.76;100.00
19457;BME280;9867;48.094;11.478;2023-04-28T12:59:31;94943.66;;;12.76;100.00
19457;BME280;9867;48.094;11.478;2023-04-28T13:01:59;94946.69;;;12.73;100.00
19457;BME280;9867;48.094;11.478;2023-04-28T13:04:27;94946.53;;;12.86;100.00
19457;BME280;9867;48.094;11.478;2023-04-28T13:06:57;94943.53;;;12.89;100.00
19457;BME280;9867;48.094;11.478;2023-04-28T13:09:25;94952.09;;;13.02;100.00
19457;BME280;9867;48.094;11.478;2023-04-28T13:11:53;94952.59;;;13.10;100.00
19457;BME280;9867;48.094;11.478;2023-04-28T13:14:22;94946.31;;;13.24;100.00
19457;BME280;9867;48.094;11.478;2023-04-28T13:16:52;94950.09;;;13.40;100.00
19457;BME280;9867;48.094;11.478;2023-04-28T13:19:20;94946.97;;;13.50;100.00
19457;BME280;9867;48.094;11.478;2023-04-28T13:21:50;94945.81;;;13.64;100.00